sensor_id;sensor_type;location;lat;lon;timestamp;temperature;humidity
51655;DHT22;37732;53.106;7.030;2023-12-20T00:00:58;5.40;99.90
51655;DHT22;37732;53.106;7.030;2023-12-20T00:03:23;6.00;99.90
51655;DHT22;37732;53.106;7.030;2023-12-20T00:05:50;5.40;99.90
51655;DHT22;37732;53.106;7.030;2023-12-20T00:08:16;5.40;99.90
51655;DHT22;37732;53.106;7.030;2023-12-20T00:10:42;5.50;99.90
51655;DHT22;37732;53.106;7.030;2023-12-20T00:13:08;5.50;99.90
51655;DHT22;37732;53.106;7.030;2023-12-20T00:15:34;5.50;99.90
51655;DHT22;37732;53.106;7.030;2023-12-20T00:18:00;5.50;99.90
51655;DHT22;37732;53.106;7.030;2023-12-20T00:20:27;5.50;99.90
51655;DHT22;37732;53.106;7.030;2023-12-20T00:22:57;5.50;99.90
51655;DHT22;37732;53.106;7.030;2023-12-20T00:25:25;5.50;99.90
51655;DHT22;37732;53.106;7.030;2023-12-20T00:27:51;5.50;99.90
51655;DHT22;37732;53.106;7.030;2023-12-20T00:30:17;6.10;99.90
51655;DHT22;37732;53.106;7.030;2023-12-20T00:32:43;5.50;99.90
51655;DHT22;37732;53.106;7.030;2023-12-20T00:35:15;5.50;99.90
51655;DHT22;37732;53.106;7.030;2023-12-20T00:37:42;5.50;99.90
51655;DHT22;37732;53.106;7.030;2023-12-20T00:40:08;5.60;99.90
51655;DHT22;37732;53.106;7.030;2023-12-20T00:42:34;5.40;99.90
51655;DHT22;37732;53.106;7.030;2023-12-20T00:45:01;5.40;99.90
51655;DHT22;37732;53.106;7.030;2023-12-20T00:47:27;5.50;99.90
51655;DHT22;37732;53.106;7.030;2023-12-20T00:49:55;5.50;99.90
51655;DHT22;37732;53.106;7.030;2023-12-20T00:52:21;5.60;99.90
51655;DHT22;37732;53.106;7.030;2023-12-20T00:54:48;5.50;99.90
51655;DHT22;37732;53.106;7.030;2023-12-20T00:57:14;5.50;99.90
51655;DHT22;37732;53.106;7.030;2023-12-20T00:59:40;5.50;99.90
51655;DHT22;37732;53.106;7.030;2023-12-20T01:02:06;5.50;99.90
51655;DHT22;37732;53.106;7.030;2023-12-20T01:04:32;5.50;99.90
51655;DHT22;37732;53.106;7.030;2023-12-20T01:06:57;5.50;99.90
51655;DHT22;37732;53.106;7.030;2023-12-20T01:09:23;6.00;99.90
51655;DHT22;37732;53.106;7.030;2023-12-20T01:11:52;5.60;99.90
51655;DHT22;37732;53.106;7.030;2023-12-20T01:14:18;6.20;99.90
51655;DHT22;37732;53.106;7.030;2023-12-20T01:16:44;5.60;99.90
51655;DHT22;37732;53.106;7.030;2023-12-20T01:19:09;5.70;99.90
51655;DHT22;37732;53.106;7.030;2023-12-20T01:21:35;5.60;99.90
51655;DHT22;37732;53.106;7.030;2023-12-20T01:24:01;5.60;99.90
51655;DHT22;37732;53.106;7.030;2023-12-20T01:26:26;5.60;99.90
51655;DHT22;37732;53.106;7.030;2023-12-20T01:28:53;5.70;99.90
51655;DHT22;37732;53.106;7.030;2023-12-20T01:31:18;5.60;99.90
51655;DHT22;37732;53.106;7.030;2023-12-20T01:33:44;5.60;99.90
51655;DHT22;37732;53.106;7.030;2023-12-20T01:36:10;5.80;99.90
51655;DHT22;37732;53.106;7.030;2023-12-20T01:38:37;5.60;99.90
51655;DHT22;37732;53.106;7.030;2023-12-20T01:41:02;5.70;99.90
51655;DHT22;37732;53.106;7.030;2023-12-20T01:43:29;5.70;99.90
51655;DHT22;37732;53.106;7.030;2023-12-20T01:45:56;5.70;99.90
51655;DHT22;37732;53.106;7.030;2023-12-20T01:48:23;5.70;99.90
51655;DHT22;37732;53.106;7.030;2023-12-20T01:50:49;5.70;99.90
51655;DHT22;37732;53.106;7.030;2023-12-20T01:53:15;5.70;99.90
51655;DHT22;37732;53.106;7.030;2023-12-20T01:55:41;5.70;99.90
51655;DHT22;37732;53.106;7.030;2023-12-20T01:58:09;5.70;99.90
51655;DHT22;37732;53.106;7.030;2023-12-20T02:03:11;5.80;99.90
51655;DHT22;37732;53.106;7.030;2023-12-20T02:05:38;5.80;99.90
51655;DHT22;37732;53.106;7.030;2023-12-20T02:08:04;5.80;99.90
51655;DHT22;37732;53.106;7.030;2023-12-20T02:10:31;5.80;99.90
51655;DHT22;37732;53.106;7.030;2023-12-20T02:12:57;5.80;99.90
51655;DHT22;37732;53.106;7.030;2023-12-20T02:15:23;5.90;99.90
51655;DHT22;37732;53.106;7.030;2023-12-20T02:17:49;5.80;99.90
51655;DHT22;37732;53.106;7.030;2023-12-20T02:20:15;5.80;99.90
51655;DHT22;37732;53.106;7.030;2023-12-20T02:22:41;5.90;99.90
51655;DHT22;37732;53.106;7.030;2023-12-20T02:25:06;5.90;99.90
51655;DHT22;37732;53.106;7.030;2023-12-20T02:27:32;5.90;99.90
51655;DHT22;37732;53.106;7.030;2023-12-20T02:29:58;5.90;99.90
51655;DHT22;37732;53.106;7.030;2023-12-20T02:32:24;6.50;99.90
51655;DHT22;37732;53.106;7.030;2023-12-20T02:34:54;5.90;99.90
51655;DHT22;37732;53.106;7.030;2023-12-20T02:37:20;5.90;99.90
51655;DHT22;37732;53.106;7.030;2023-12-20T02:39:45;5.90;99.90
51655;DHT22;37732;53.106;7.030;2023-12-20T02:42:11;5.90;99.90
51655;DHT22;37732;53.106;7.030;2023-12-20T02:44:37;6.00;99.90
51655;DHT22;37732;53.106;7.030;2023-12-20T02:47:03;5.90;99.90
51655;DHT22;37732;53.106;7.030;2023-12-20T02:49:29;5.90;99.90
51655;DHT22;37732;53.106;7.030;2023-12-20T02:51:54;5.90;99.90
51655;DHT22;37732;53.106;7.030;2023-12-20T02:54:20;5.90;99.90
51655;DHT22;37732;53.106;7.030;2023-12-20T02:56:47;5.90;99.90
51655;DHT22;37732;53.106;7.030;2023-12-20T02:59:12;5.80;99.90
51655;DHT22;37732;53.106;7.030;2023-12-20T03:01:45;5.90;99.90
51655;DHT22;37732;53.106;7.030;2023-12-20T03:04:11;5.90;99.90
51655;DHT22;37732;53.106;7.030;2023-12-20T03:06:38;6.00;99.90
51655;DHT22;37732;53.106;7.030;2023-12-20T03:09:03;6.50;99.90
51655;DHT22;37732;53.106;7.030;2023-12-20T03:11:29;5.90;99.90
51655;DHT22;37732;53.106;7.030;2023-12-20T03:13:56;5.90;99.90
51655;DHT22;37732;53.106;7.030;2023-12-20T03:16:21;5.90;99.90
51655;DHT22;37732;53.106;7.030;2023-12-20T03:18:47;5.90;99.90
51655;DHT22;37732;53.106;7.030;2023-12-20T03:21:13;5.90;99.90
51655;DHT22;37732;53.106;7.030;2023-12-20T03:23:38;5.90;99.90
51655;DHT22;37732;53.106;7.030;2023-12-20T03:26:07;5.90;99.90
51655;DHT22;37732;53.106;7.030;2023-12-20T03:28:34;5.90;99.90
51655;DHT22;37732;53.106;7.030;2023-12-20T03:31:00;5.80;99.90
51655;DHT22;37732;53.106;7.030;2023-12-20T03:33:25;5.80;99.90
51655;DHT22;37732;53.106;7.030;2023-12-20T03:35:51;5.80;99.90
51655;DHT22;37732;53.106;7.030;2023-12-20T03:38:17;6.50;99.90
51655;DHT22;37732;53.106;7.030;2023-12-20T03:40:43;5.80;99.90
51655;DHT22;37732;53.106;7.030;2023-12-20T03:43:08;5.80;99.90
51655;DHT22;37732;53.106;7.030;2023-12-20T03:45:34;5.90;99.90
51655;DHT22;37732;53.106;7.030;2023-12-20T03:48:00;5.80;99.90
51655;DHT22;37732;53.106;7.030;2023-12-20T03:50:26;5.90;99.90
51655;DHT22;37732;53.106;7.030;2023-12-20T03:52:52;6.00;99.90
51655;DHT22;37732;53.106;7.030;2023-12-20T03:55:18;5.90;99.90
51655;DHT22;37732;53.106;7.030;2023-12-20T03:57:44;6.30;99.90
51655;DHT22;37732;53.106;7.030;2023-12-20T04:00:10;6.00;99.90
51655;DHT22;37732;53.106;7.030;2023-12-20T04:02:42;6.00;99.90
51655;DHT22;37732;53.106;7.030;2023-12-20T04:05:08;6.10;99.90
51655;DHT22;37732;53.106;7.030;2023-12-20T04:07:35;6.10;99.90
51655;DHT22;37732;53.106;7.030;2023-12-20T04:10:02;6.00;99.90
51655;DHT22;37732;53.106;7.030;2023-12-20T04:12:29;6.30;99.90
51655;DHT22;37732;53.106;7.030;2023-12-20T04:14:55;6.70;99.90
51655;DHT22;37732;53.106;7.030;2023-12-20T04:17:20;6.00;99.90
51655;DHT22;37732;53.106;7.030;2023-12-20T04:19:48;6.00;99.90
51655;DHT22;37732;53.106;7.030;2023-12-20T04:22:14;6.00;99.90
51655;DHT22;37732;53.106;7.030;2023-12-20T04:24:40;6.00;99.90
51655;DHT22;37732;53.106;7.030;2023-12-20T04:27:07;6.30;99.90
51655;DHT22;37732;53.106;7.030;2023-12-20T04:29:34;6.10;99.90
51655;DHT22;37732;53.106;7.030;2023-12-20T04:31:59;6.20;99.90
51655;DHT22;37732;53.106;7.030;2023-12-20T04:34:25;6.10;99.90
51655;DHT22;37732;53.106;7.030;2023-12-20T04:36:51;6.00;99.90
51655;DHT22;37732;53.106;7.030;2023-12-20T04:39:17;6.40;99.90
51655;DHT22;37732;53.106;7.030;2023-12-20T04:41:43;6.10;99.90
51655;DHT22;37732;53.106;7.030;2023-12-20T04:44:09;6.10;99.90
51655;DHT22;37732;53.106;7.030;2023-12-20T04:46:35;6.10;99.90
51655;DHT22;37732;53.106;7.030;2023-12-20T04:49:01;6.10;99.90
51655;DHT22;37732;53.106;7.030;2023-12-20T04:51:27;6.10;99.90
51655;DHT22;37732;53.106;7.030;2023-12-20T04:53:52;6.10;99.90
51655;DHT22;37732;53.106;7.030;2023-12-20T04:56:18;6.10;99.90
51655;DHT22;37732;53.106;7.030;2023-12-20T04:58:43;6.10;99.90
51655;DHT22;37732;53.106;7.030;2023-12-20T05:01:09;6.20;99.90
51655;DHT22;37732;53.106;7.030;2023-12-20T05:03:35;6.20;99.90
51655;DHT22;37732;53.106;7.030;2023-12-20T05:06:01;6.20;99.90
51655;DHT22;37732;53.106;7.030;2023-12-20T05:08:27;6.30;99.90
51655;DHT22;37732;53.106;7.030;2023-12-20T05:10:56;6.30;99.90
51655;DHT22;37732;53.106;7.030;2023-12-20T05:13:22;6.30;99.90
51655;DHT22;37732;53.106;7.030;2023-12-20T05:15:48;6.40;99.90
51655;DHT22;37732;53.106;7.030;2023-12-20T05:18:13;6.70;99.90
51655;DHT22;37732;53.106;7.030;2023-12-20T05:20:39;7.00;99.90
51655;DHT22;37732;53.106;7.030;2023-12-20T05:23:05;6.50;99.90
51655;DHT22;37732;53.106;7.030;2023-12-20T05:25:31;6.60;99.90
51655;DHT22;37732;53.106;7.030;2023-12-20T05:27:57;6.60;99.90
51655;DHT22;37732;53.106;7.030;2023-12-20T05:30:23;6.50;99.90
51655;DHT22;37732;53.106;7.030;2023-12-20T05:32:48;6.60;99.90
51655;DHT22;37732;53.106;7.030;2023-12-20T05:35:14;7.50;99.90
51655;DHT22;37732;53.106;7.030;2023-12-20T05:37:41;6.50;99.90
51655;DHT22;37732;53.106;7.030;2023-12-20T05:40:07;6.60;99.90
51655;DHT22;37732;53.106;7.030;2023-12-20T05:42:38;6.60;99.90
51655;DHT22;37732;53.106;7.030;2023-12-20T05:45:05;6.60;99.90
51655;DHT22;37732;53.106;7.030;2023-12-20T05:47:32;6.60;99.90
51655;DHT22;37732;53.106;7.030;2023-12-20T05:49:58;6.60;99.90
51655;DHT22;37732;53.106;7.030;2023-12-20T05:52:24;6.70;99.90
51655;DHT22;37732;53.106;7.030;2023-12-20T05:54:49;6.70;99.90
51655;DHT22;37732;53.106;7.030;2023-12-20T05:57:15;6.80;99.90
51655;DHT22;37732;53.106;7.030;2023-12-20T05:59:41;6.70;99.90
51655;DHT22;37732;53.106;7.030;2023-12-20T06:02:07;6.80;99.90
51655;DHT22;37732;53.106;7.030;2023-12-20T06:04:32;6.80;99.90
51655;DHT22;37732;53.106;7.030;2023-12-20T06:06:58;6.80;99.90
51655;DHT22;37732;53.106;7.030;2023-12-20T06:09:26;7.50;99.90
51655;DHT22;37732;53.106;7.030;2023-12-20T06:11:52;6.80;99.90
51655;DHT22;37732;53.106;7.030;2023-12-20T06:14:17;6.80;99.90
51655;DHT22;37732;53.106;7.030;2023-12-20T06:16:43;6.90;99.90
51655;DHT22;37732;53.106;7.030;2023-12-20T06:19:10;6.90;99.90
51655;DHT22;37732;53.106;7.030;2023-12-20T06:21:36;6.90;99.90
51655;DHT22;37732;53.106;7.030;2023-12-20T06:24:01;6.90;99.90
51655;DHT22;37732;53.106;7.030;2023-12-20T06:26:27;6.90;99.90
51655;DHT22;37732;53.106;7.030;2023-12-20T06:28:53;6.90;99.90
51655;DHT22;37732;53.106;7.030;2023-12-20T06:31:18;6.90;99.90
51655;DHT22;37732;53.106;7.030;2023-12-20T06:33:44;6.90;99.90
51655;DHT22;37732;53.106;7.030;2023-12-20T06:36:13;6.90;99.90
51655;DHT22;37732;53.106;7.030;2023-12-20T06:38:39;6.90;99.90
51655;DHT22;37732;53.106;7.030;2023-12-20T06:41:05;6.90;99.90
51655;DHT22;37732;53.106;7.030;2023-12-20T06:43:31;6.90;99.90
51655;DHT22;37732;53.106;7.030;2023-12-20T06:45:58;7.00;99.90
51655;DHT22;37732;53.106;7.030;2023-12-20T06:48:23;6.90;99.90
51655;DHT22;37732;53.106;7.030;2023-12-20T06:50:49;6.90;99.90
51655;DHT22;37732;53.106;7.030;2023-12-20T06:53:15;6.90;99.90
51655;DHT22;37732;53.106;7.030;2023-12-20T06:55:40;6.90;99.90
51655;DHT22;37732;53.106;7.030;2023-12-20T06:58:06;6.90;99.90
51655;DHT22;37732;53.106;7.030;2023-12-20T07:00:32;6.90;99.90
51655;DHT22;37732;53.106;7.030;2023-12-20T07:02:58;6.90;99.90
51655;DHT22;37732;53.106;7.030;2023-12-20T07:05:24;7.00;99.90
51655;DHT22;37732;53.106;7.030;2023-12-20T07:07:50;7.00;99.90
51655;DHT22;37732;53.106;7.030;2023-12-20T07:10:16;7.00;99.90
51655;DHT22;37732;53.106;7.030;2023-12-20T07:12:41;7.00;99.90
51655;DHT22;37732;53.106;7.030;2023-12-20T07:15:07;7.10;99.90
51655;DHT22;37732;53.106;7.030;2023-12-20T07:17:34;7.10;99.90
51655;DHT22;37732;53.106;7.030;2023-12-20T07:20:00;7.10;99.90
51655;DHT22;37732;53.106;7.030;2023-12-20T07:22:33;7.10;99.90
51655;DHT22;37732;53.106;7.030;2023-12-20T07:24:59;7.10;99.90
51655;DHT22;37732;53.106;7.030;2023-12-20T07:27:25;7.10;99.90
51655;DHT22;37732;53.106;7.030;2023-12-20T07:29:51;7.10;99.90
51655;DHT22;37732;53.106;7.030;2023-12-20T07:32:17;7.10;99.90
51655;DHT22;37732;53.106;7.030;2023-12-20T07:34:43;7.10;99.90
51655;DHT22;37732;53.106;7.030;2023-12-20T07:37:09;7.10;99.90
51655;DHT22;37732;53.106;7.030;2023-12-20T07:39:38;7.10;99.90
51655;DHT22;37732;53.106;7.030;2023-12-20T07:42:05;7.10;99.90
51655;DHT22;37732;53.106;7.030;2023-12-20T07:44:31;7.10;99.90
51655;DHT22;37732;53.106;7.030;2023-12-20T07:46:57;7.10;99.90
51655;DHT22;37732;53.106;7.030;2023-12-20T07:49:23;7.20;99.90
51655;DHT22;37732;53.106;7.030;2023-12-20T07:51:49;7.20;99.90
51655;DHT22;37732;53.106;7.030;2023-12-20T07:54:15;7.30;99.90
51655;DHT22;37732;53.106;7.030;2023-12-20T07:56:41;7.30;99.90
51655;DHT22;37732;53.106;7.030;2023-12-20T07:59:07;7.30;99.90
51655;DHT22;37732;53.106;7.030;2023-12-20T08:01:32;7.40;99.90
51655;DHT22;37732;53.106;7.030;2023-12-20T08:03:58;7.40;99.90
51655;DHT22;37732;53.106;7.030;2023-12-20T08:06:24;7.50;99.90
51655;DHT22;37732;53.106;7.030;2023-12-20T08:08:49;7.40;99.90
51655;DHT22;37732;53.106;7.030;2023-12-20T08:11:15;7.50;99.90
51655;DHT22;37732;53.106;7.030;2023-12-20T08:13:41;7.50;99.90
51655;DHT22;37732;53.106;7.030;2023-12-20T08:16:07;7.50;99.90
51655;DHT22;37732;53.106;7.030;2023-12-20T08:18:32;7.50;99.90
51655;DHT22;37732;53.106;7.030;2023-12-20T08:20:59;7.50;99.90
51655;DHT22;37732;53.106;7.030;2023-12-20T08:23:26;7.50;99.90
51655;DHT22;37732;53.106;7.030;2023-12-20T08:25:52;7.50;99.90
51655;DHT22;37732;53.106;7.030;2023-12-20T08:28:18;7.60;99.90
51655;DHT22;37732;53.106;7.030;2023-12-20T08:30:43;7.60;99.90
51655;DHT22;37732;53.106;7.030;2023-12-20T08:33:09;7.60;99.90
51655;DHT22;37732;53.106;7.030;2023-12-20T08:35:41;7.70;99.90
51655;DHT22;37732;53.106;7.030;2023-12-20T08:38:07;7.70;99.90
51655;DHT22;37732;53.106;7.030;2023-12-20T08:40:33;7.70;99.90
51655;DHT22;37732;53.106;7.030;2023-12-20T08:42:59;7.70;99.90
51655;DHT22;37732;53.106;7.030;2023-12-20T08:45:24;7.90;99.90
51655;DHT22;37732;53.106;7.030;2023-12-20T08:47:50;7.70;99.90
51655;DHT22;37732;53.106;7.030;2023-12-20T08:50:15;7.70;99.90
51655;DHT22;37732;53.106;7.030;2023-12-20T08:52:41;7.70;99.90
51655;DHT22;37732;53.106;7.030;2023-12-20T08:55:08;7.70;99.90
51655;DHT22;37732;53.106;7.030;2023-12-20T08:57:33;7.80;99.90
51655;DHT22;37732;53.106;7.030;2023-12-20T08:59:59;7.80;99.90
51655;DHT22;37732;53.106;7.030;2023-12-20T09:02:25;7.80;99.90
51655;DHT22;37732;53.106;7.030;2023-12-20T09:04:50;7.90;99.90
51655;DHT22;37732;53.106;7.030;2023-12-20T09:07:23;7.60;99.90
51655;DHT22;37732;53.106;7.030;2023-12-20T09:09:49;7.30;99.90
51655;DHT22;37732;53.106;7.030;2023-12-20T09:12:16;7.10;99.90
51655;DHT22;37732;53.106;7.030;2023-12-20T09:14:42;7.30;99.90
51655;DHT22;37732;53.106;7.030;2023-12-20T09:17:08;6.60;99.90
51655;DHT22;37732;53.106;7.030;2023-12-20T09:19:34;6.30;99.90
51655;DHT22;37732;53.106;7.030;2023-12-20T09:22:00;6.20;99.90
51655;DHT22;37732;53.106;7.030;2023-12-20T09:24:26;6.10;99.90
51655;DHT22;37732;53.106;7.030;2023-12-20T09:26:52;6.10;99.90
51655;DHT22;37732;53.106;7.030;2023-12-20T09:29:17;6.00;99.90
51655;DHT22;37732;53.106;7.030;2023-12-20T09:31:44;6.00;99.90
51655;DHT22;37732;53.106;7.030;2023-12-20T09:34:11;6.00;99.90
51655;DHT22;37732;53.106;7.030;2023-12-20T09:36:37;6.00;99.90
51655;DHT22;37732;53.106;7.030;2023-12-20T09:39:06;6.00;99.90
51655;DHT22;37732;53.106;7.030;2023-12-20T09:41:37;6.00;99.90
51655;DHT22;37732;53.106;7.030;2023-12-20T09:44:07;6.00;99.90
51655;DHT22;37732;53.106;7.030;2023-12-20T09:46:35;6.00;99.90
51655;DHT22;37732;53.106;7.030;2023-12-20T09:49:05;6.00;99.90
51655;DHT22;37732;53.106;7.030;2023-12-20T09:51:31;6.10;99.90
51655;DHT22;37732;53.106;7.030;2023-12-20T09:53:58;6.10;99.90
51655;DHT22;37732;53.106;7.030;2023-12-20T09:56:25;6.10;99.90
51655;DHT22;37732;53.106;7.030;2023-12-20T09:58:51;6.10;99.90
51655;DHT22;37732;53.106;7.030;2023-12-20T10:01:17;6.10;99.90
51655;DHT22;37732;53.106;7.030;2023-12-20T10:03:43;6.10;99.90
51655;DHT22;37732;53.106;7.030;2023-12-20T10:06:10;6.10;99.90
51655;DHT22;37732;53.106;7.030;2023-12-20T10:08:36;6.20;99.90
51655;DHT22;37732;53.106;7.030;2023-12-20T10:11:01;6.10;99.90
51655;DHT22;37732;53.106;7.030;2023-12-20T10:13:29;6.10;99.90
51655;DHT22;37732;53.106;7.030;2023-12-20T10:15:55;6.20;99.90
51655;DHT22;37732;53.106;7.030;2023-12-20T10:18:21;6.20;99.90
51655;DHT22;37732;53.106;7.030;2023-12-20T10:20:47;6.20;99.90
51655;DHT22;37732;53.106;7.030;2023-12-20T10:23:15;6.30;99.90
51655;DHT22;37732;53.106;7.030;2023-12-20T10:25:41;6.20;99.90
51655;DHT22;37732;53.106;7.030;2023-12-20T10:28:14;6.20;99.90
51655;DHT22;37732;53.106;7.030;2023-12-20T10:30:43;6.20;99.90
51655;DHT22;37732;53.106;7.030;2023-12-20T10:33:09;6.50;99.90
51655;DHT22;37732;53.106;7.030;2023-12-20T10:35:39;6.40;99.90
51655;DHT22;37732;53.106;7.030;2023-12-20T10:38:06;6.40;99.90
51655;DHT22;37732;53.106;7.030;2023-12-20T10:40:35;6.50;99.90
51655;DHT22;37732;53.106;7.030;2023-12-20T10:43:04;6.30;99.90
51655;DHT22;37732;53.106;7.030;2023-12-20T10:45:31;6.30;99.90
51655;DHT22;37732;53.106;7.030;2023-12-20T10:47:58;6.40;99.90
51655;DHT22;37732;53.106;7.030;2023-12-20T10:50:27;6.50;99.90
51655;DHT22;37732;53.106;7.030;2023-12-20T10:52:55;6.50;99.90
51655;DHT22;37732;53.106;7.030;2023-12-20T10:55:24;6.60;99.90
51655;DHT22;37732;53.106;7.030;2023-12-20T10:58:08;6.70;99.90
51655;DHT22;37732;53.106;7.030;2023-12-20T11:00:40;6.70;99.90
51655;DHT22;37732;53.106;7.030;2023-12-20T11:03:09;6.70;99.90
51655;DHT22;37732;53.106;7.030;2023-12-20T11:05:53;6.70;99.90
51655;DHT22;37732;53.106;7.030;2023-12-20T11:13:36;6.80;99.90
51655;DHT22;37732;53.106;7.030;2023-12-20T11:16:02;6.80;99.90
51655;DHT22;37732;53.106;7.030;2023-12-20T11:18:31;6.90;99.90
51655;DHT22;37732;53.106;7.030;2023-12-20T11:21:01;6.90;99.90
51655;DHT22;37732;53.106;7.030;2023-12-20T11:23:30;6.90;99.90
51655;DHT22;37732;53.106;7.030;2023-12-20T11:25:57;6.80;99.90
51655;DHT22;37732;53.106;7.030;2023-12-20T11:28:26;6.80;99.90
51655;DHT22;37732;53.106;7.030;2023-12-20T11:30:57;7.20;99.90
51655;DHT22;37732;53.106;7.030;2023-12-20T11:33:30;6.80;99.90
51655;DHT22;37732;53.106;7.030;2023-12-20T11:35:57;6.70;99.90
51655;DHT22;37732;53.106;7.030;2023-12-20T11:38:25;6.70;99.90
51655;DHT22;37732;53.106;7.030;2023-12-20T11:40:51;6.70;99.90
51655;DHT22;37732;53.106;7.030;2023-12-20T11:43:53;6.70;99.90
51655;DHT22;37732;53.106;7.030;2023-12-20T11:46:19;6.70;99.90
51655;DHT22;37732;53.106;7.030;2023-12-20T11:48:46;6.70;99.90
51655;DHT22;37732;53.106;7.030;2023-12-20T11:51:13;6.80;99.90
51655;DHT22;37732;53.106;7.030;2023-12-20T11:53:40;6.60;99.90
51655;DHT22;37732;53.106;7.030;2023-12-20T11:56:06;6.70;99.90
51655;DHT22;37732;53.106;7.030;2023-12-20T11:58:33;6.60;99.90
51655;DHT22;37732;53.106;7.030;2023-12-20T12:00:59;6.60;99.90
51655;DHT22;37732;53.106;7.030;2023-12-20T12:03:25;6.60;99.90
51655;DHT22;37732;53.106;7.030;2023-12-20T12:05:51;6.80;99.90
51655;DHT22;37732;53.106;7.030;2023-12-20T12:08:17;6.70;99.90
51655;DHT22;37732;53.106;7.030;2023-12-20T12:10:44;6.70;99.90
51655;DHT22;37732;53.106;7.030;2023-12-20T12:13:09;6.70;99.90
51655;DHT22;37732;53.106;7.030;2023-12-20T12:15:36;6.80;99.90
51655;DHT22;37732;53.106;7.030;2023-12-20T12:18:02;6.90;99.90
51655;DHT22;37732;53.106;7.030;2023-12-20T12:20:28;6.90;99.90
51655;DHT22;37732;53.106;7.030;2023-12-20T12:23:12;7.00;99.90
51655;DHT22;37732;53.106;7.030;2023-12-20T12:25:38;7.00;99.90
51655;DHT22;37732;53.106;7.030;2023-12-20T12:28:04;7.10;99.90
51655;DHT22;37732;53.106;7.030;2023-12-20T12:30:29;7.00;99.90
51655;DHT22;37732;53.106;7.030;2023-12-20T12:32:56;7.00;99.90
51655;DHT22;37732;53.106;7.030;2023-12-20T12:35:23;7.00;99.90
51655;DHT22;37732;53.106;7.030;2023-12-20T12:37:49;7.10;99.90
51655;DHT22;37732;53.106;7.030;2023-12-20T12:40:16;7.10;99.90
51655;DHT22;37732;53.106;7.030;2023-12-20T12:42:44;7.10;99.90
51655;DHT22;37732;53.106;7.030;2023-12-20T12:45:10;7.10;99.90
51655;DHT22;37732;53.106;7.030;2023-12-20T12:47:37;7.10;99.90
51655;DHT22;37732;53.106;7.030;2023-12-20T12:50:03;7.10;99.90
51655;DHT22;37732;53.106;7.030;2023-12-20T12:52:30;7.20;99.90
51655;DHT22;37732;53.106;7.030;2023-12-20T12:54:57;7.20;99.90
51655;DHT22;37732;53.106;7.030;2023-12-20T12:57:22;7.20;99.90
51655;DHT22;37732;53.106;7.030;2023-12-20T12:59:49;7.20;99.90
51655;DHT22;37732;53.106;7.030;2023-12-20T13:02:16;7.30;99.90
51655;DHT22;37732;53.106;7.030;2023-12-20T13:04:42;7.30;99.90
51655;DHT22;37732;53.106;7.030;2023-12-20T13:07:09;7.30;99.90
51655;DHT22;37732;53.106;7.030;2023-12-20T13:09:38;7.40;99.90
51655;DHT22;37732;53.106;7.030;2023-12-20T13:12:05;7.30;99.90
51655;DHT22;37732;53.106;7.030;2023-12-20T13:14:33;7.30;99.90
51655;DHT22;37732;53.106;7.030;2023-12-20T13:17:00;7.30;99.90
51655;DHT22;37732;53.106;7.030;2023-12-20T13:19:25;7.30;99.90
51655;DHT22;37732;53.106;7.030;2023-12-20T13:21:51;7.30;99.90
51655;DHT22;37732;53.106;7.030;2023-12-20T13:24:17;7.30;99.90
51655;DHT22;37732;53.106;7.030;2023-12-20T13:26:44;7.30;99.90
51655;DHT22;37732;53.106;7.030;2023-12-20T13:29:09;7.30;99.90
51655;DHT22;37732;53.106;7.030;2023-12-20T13:31:35;7.30;99.90
51655;DHT22;37732;53.106;7.030;2023-12-20T13:34:02;7.30;99.90
51655;DHT22;37732;53.106;7.030;2023-12-20T13:36:27;7.30;99.90
51655;DHT22;37732;53.106;7.030;2023-12-20T13:38:53;7.30;99.90
51655;DHT22;37732;53.106;7.030;2023-12-20T13:41:19;7.40;99.90
51655;DHT22;37732;53.106;7.030;2023-12-20T13:43:45;7.30;99.90
51655;DHT22;37732;53.106;7.030;2023-12-20T13:46:11;7.30;99.90
51655;DHT22;37732;53.106;7.030;2023-12-20T13:48:37;7.30;99.90
51655;DHT22;37732;53.106;7.030;2023-12-20T13:51:03;7.30;99.90
51655;DHT22;37732;53.106;7.030;2023-12-20T13:53:29;7.30;99.90
51655;DHT22;37732;53.106;7.030;2023-12-20T13:55:55;7.70;99.90
51655;DHT22;37732;53.106;7.030;2023-12-20T13:58:20;7.20;99.90
51655;DHT22;37732;53.106;7.030;2023-12-20T14:00:46;7.20;99.90
51655;DHT22;37732;53.106;7.030;2023-12-20T14:03:12;7.10;99.90
51655;DHT22;37732;53.106;7.030;2023-12-20T14:05:37;7.00;99.90
51655;DHT22;37732;53.106;7.030;2023-12-20T14:08:04;7.00;99.90
51655;DHT22;37732;53.106;7.030;2023-12-20T14:10:29;7.00;99.90
51655;DHT22;37732;53.106;7.030;2023-12-20T14:12:55;6.90;99.90
51655;DHT22;37732;53.106;7.030;2023-12-20T14:15:21;6.90;99.90
51655;DHT22;37732;53.106;7.030;2023-12-20T14:17:50;6.90;99.90
51655;DHT22;37732;53.106;7.030;2023-12-20T14:20:16;6.80;99.90
51655;DHT22;37732;53.106;7.030;2023-12-20T14:22:43;6.80;99.90
51655;DHT22;37732;53.106;7.030;2023-12-20T14:25:13;6.80;99.90
51655;DHT22;37732;53.106;7.030;2023-12-20T14:27:42;6.80;99.90
51655;DHT22;37732;53.106;7.030;2023-12-20T14:30:09;6.80;99.90
51655;DHT22;37732;53.106;7.030;2023-12-20T14:32:35;6.80;99.90
51655;DHT22;37732;53.106;7.030;2023-12-20T14:35:07;6.70;99.90
51655;DHT22;37732;53.106;7.030;2023-12-20T14:37:34;6.80;99.90
51655;DHT22;37732;53.106;7.030;2023-12-20T14:40:01;6.70;99.90
51655;DHT22;37732;53.106;7.030;2023-12-20T14:42:26;6.70;99.90
51655;DHT22;37732;53.106;7.030;2023-12-20T14:44:52;6.70;99.90
51655;DHT22;37732;53.106;7.030;2023-12-20T14:47:20;6.60;99.90
51655;DHT22;37732;53.106;7.030;2023-12-20T14:49:45;6.60;99.90
51655;DHT22;37732;53.106;7.030;2023-12-20T14:52:13;6.60;99.90
51655;DHT22;37732;53.106;7.030;2023-12-20T14:54:38;6.60;99.90
51655;DHT22;37732;53.106;7.030;2023-12-20T14:57:04;6.60;99.90
51655;DHT22;37732;53.106;7.030;2023-12-20T14:59:30;6.60;99.90
51655;DHT22;37732;53.106;7.030;2023-12-20T15:01:56;6.50;99.90
51655;DHT22;37732;53.106;7.030;2023-12-20T15:04:21;6.60;99.90
51655;DHT22;37732;53.106;7.030;2023-12-20T15:06:54;6.50;99.90
51655;DHT22;37732;53.106;7.030;2023-12-20T15:09:20;6.50;99.90
51655;DHT22;37732;53.106;7.030;2023-12-20T15:11:45;6.50;99.90
51655;DHT22;37732;53.106;7.030;2023-12-20T15:14:11;6.50;99.90
51655;DHT22;37732;53.106;7.030;2023-12-20T15:16:40;6.50;99.90
51655;DHT22;37732;53.106;7.030;2023-12-20T15:19:05;6.50;99.90
51655;DHT22;37732;53.106;7.030;2023-12-20T15:21:31;6.40;99.90
51655;DHT22;37732;53.106;7.030;2023-12-20T15:23:59;6.40;99.90
51655;DHT22;37732;53.106;7.030;2023-12-20T15:26:38;6.40;99.90
51655;DHT22;37732;53.106;7.030;2023-12-20T15:29:04;6.30;99.90
51655;DHT22;37732;53.106;7.030;2023-12-20T15:31:30;6.30;99.90
51655;DHT22;37732;53.106;7.030;2023-12-20T15:33:57;6.30;99.90
51655;DHT22;37732;53.106;7.030;2023-12-20T15:36:22;6.30;99.90
51655;DHT22;37732;53.106;7.030;2023-12-20T15:38:48;6.30;99.90
51655;DHT22;37732;53.106;7.030;2023-12-20T15:41:21;6.30;99.90
51655;DHT22;37732;53.106;7.030;2023-12-20T15:43:47;6.30;99.90
51655;DHT22;37732;53.106;7.030;2023-12-20T15:46:13;6.30;99.90
51655;DHT22;37732;53.106;7.030;2023-12-20T15:48:40;6.30;99.90